NCAR-RAP Real-Time Weather Data

Output produced by METARs form (22 December 2014  22:40 UTC)
found at http://weather.rap.ucar.edu/surface/
 
Conditions at: K4O4 observed 22 December 2014  22:35 UTC
Temperature: 16.0°C (61°F)
Dewpoint: 8.0°C (46°F) [RH = 59%]
Pressure (altimeter): 29.56 inches Hg (1001.1 mb)
Winds: from the W (260 degrees) at 6 MPH (5 knots; 2.6 m/s)
Visibility: 10 or more miles (16+ km)
Ceiling: at least 12,000 feet AGL
Clouds: sky clear below 12,000 feet AGL
Present Weather: automated observation with no human augmentation;
there may or may not be significant weather present at this time
K4O4 222235Z AUTO 26005KT 10SM CLR 16/08 A2956 RMK AO2